sensor_id;sensor_type;location;lat;lon;timestamp;temperature;humidity
29403;DHT22;16382;59.942;30.472;2022-10-16T00:01:35;11.50;99.90
29403;DHT22;16382;59.942;30.472;2022-10-16T00:04:03;11.50;99.90
29403;DHT22;16382;59.942;30.472;2022-10-16T00:06:30;11.50;99.90
29403;DHT22;16382;59.942;30.472;2022-10-16T00:08:58;11.50;99.90
29403;DHT22;16382;59.942;30.472;2022-10-16T00:11:27;11.50;99.90
29403;DHT22;16382;59.942;30.472;2022-10-16T00:13:57;11.50;99.90
29403;DHT22;16382;59.942;30.472;2022-10-16T00:16:24;11.50;99.90
29403;DHT22;16382;59.942;30.472;2022-10-16T00:18:53;11.40;99.90
29403;DHT22;16382;59.942;30.472;2022-10-16T00:21:22;11.40;99.90
29403;DHT22;16382;59.942;30.472;2022-10-16T00:24:09;11.40;99.90
29403;DHT22;16382;59.942;30.472;2022-10-16T00:26:38;11.40;99.90
29403;DHT22;16382;59.942;30.472;2022-10-16T00:29:06;11.40;99.90
29403;DHT22;16382;59.942;30.472;2022-10-16T00:31:34;11.40;99.90
29403;DHT22;16382;59.942;30.472;2022-10-16T00:34:03;11.40;99.90
29403;DHT22;16382;59.942;30.472;2022-10-16T00:36:30;11.40;99.90
29403;DHT22;16382;59.942;30.472;2022-10-16T00:38:58;11.40;99.90
29403;DHT22;16382;59.942;30.472;2022-10-16T00:41:27;11.40;99.90
29403;DHT22;16382;59.942;30.472;2022-10-16T00:43:56;11.30;99.90
29403;DHT22;16382;59.942;30.472;2022-10-16T00:46:26;11.40;99.90
29403;DHT22;16382;59.942;30.472;2022-10-16T00:49:00;11.40;99.90
29403;DHT22;16382;59.942;30.472;2022-10-16T00:51:31;11.40;99.90
29403;DHT22;16382;59.942;30.472;2022-10-16T00:53:59;11.30;99.90
29403;DHT22;16382;59.942;30.472;2022-10-16T00:56:27;11.30;99.90
29403;DHT22;16382;59.942;30.472;2022-10-16T00:58:54;11.30;99.90
29403;DHT22;16382;59.942;30.472;2022-10-16T01:01:22;11.40;99.90
29403;DHT22;16382;59.942;30.472;2022-10-16T01:03:49;11.30;99.90
29403;DHT22;16382;59.942;30.472;2022-10-16T01:06:23;11.30;99.90
29403;DHT22;16382;59.942;30.472;2022-10-16T01:09:02;11.30;99.90
29403;DHT22;16382;59.942;30.472;2022-10-16T01:11:35;11.30;99.90
29403;DHT22;16382;59.942;30.472;2022-10-16T01:14:11;11.40;99.90
29403;DHT22;16382;59.942;30.472;2022-10-16T01:16:45;11.30;99.90
29403;DHT22;16382;59.942;30.472;2022-10-16T01:19:21;11.20;99.90
29403;DHT22;16382;59.942;30.472;2022-10-16T01:21:53;11.20;99.90
29403;DHT22;16382;59.942;30.472;2022-10-16T01:24:31;11.10;99.90
29403;DHT22;16382;59.942;30.472;2022-10-16T01:27:10;11.10;99.90
29403;DHT22;16382;59.942;30.472;2022-10-16T01:29:43;11.10;99.90
29403;DHT22;16382;59.942;30.472;2022-10-16T01:32:16;11.20;99.90
29403;DHT22;16382;59.942;30.472;2022-10-16T01:34:51;11.20;99.90
29403;DHT22;16382;59.942;30.472;2022-10-16T01:37:27;11.10;99.90
29403;DHT22;16382;59.942;30.472;2022-10-16T01:39:59;11.10;99.90
29403;DHT22;16382;59.942;30.472;2022-10-16T01:42:35;11.10;99.90
29403;DHT22;16382;59.942;30.472;2022-10-16T01:45:05;11.10;99.90
29403;DHT22;16382;59.942;30.472;2022-10-16T01:47:35;11.10;99.90
29403;DHT22;16382;59.942;30.472;2022-10-16T01:50:04;11.20;99.90
29403;DHT22;16382;59.942;30.472;2022-10-16T01:52:37;11.20;99.90
29403;DHT22;16382;59.942;30.472;2022-10-16T01:55:08;11.30;99.90
29403;DHT22;16382;59.942;30.472;2022-10-16T01:57:42;11.20;99.90
29403;DHT22;16382;59.942;30.472;2022-10-16T02:00:13;11.20;99.90
29403;DHT22;16382;59.942;30.472;2022-10-16T02:02:43;11.20;99.90
29403;DHT22;16382;59.942;30.472;2022-10-16T02:05:15;11.10;99.90
29403;DHT22;16382;59.942;30.472;2022-10-16T02:07:43;11.20;99.90
29403;DHT22;16382;59.942;30.472;2022-10-16T02:10:10;11.10;99.90
29403;DHT22;16382;59.942;30.472;2022-10-16T02:12:42;11.10;99.90
29403;DHT22;16382;59.942;30.472;2022-10-16T02:15:11;11.10;99.90
29403;DHT22;16382;59.942;30.472;2022-10-16T02:17:38;11.10;99.90
29403;DHT22;16382;59.942;30.472;2022-10-16T02:20:06;11.10;99.90
29403;DHT22;16382;59.942;30.472;2022-10-16T02:22:36;11.10;99.90
29403;DHT22;16382;59.942;30.472;2022-10-16T02:25:08;11.10;99.90
29403;DHT22;16382;59.942;30.472;2022-10-16T02:27:43;11.10;99.90
29403;DHT22;16382;59.942;30.472;2022-10-16T02:30:15;11.00;99.90
29403;DHT22;16382;59.942;30.472;2022-10-16T02:32:45;11.00;99.90
29403;DHT22;16382;59.942;30.472;2022-10-16T02:35:16;10.90;99.90
29403;DHT22;16382;59.942;30.472;2022-10-16T02:37:44;10.90;99.90
29403;DHT22;16382;59.942;30.472;2022-10-16T02:40:13;10.80;99.90
29403;DHT22;16382;59.942;30.472;2022-10-16T02:42:42;10.80;99.90
29403;DHT22;16382;59.942;30.472;2022-10-16T02:45:11;10.80;99.90
29403;DHT22;16382;59.942;30.472;2022-10-16T02:47:38;10.80;99.90
29403;DHT22;16382;59.942;30.472;2022-10-16T02:50:06;10.80;99.90
29403;DHT22;16382;59.942;30.472;2022-10-16T02:52:33;10.80;99.90
29403;DHT22;16382;59.942;30.472;2022-10-16T02:55:00;10.80;99.90
29403;DHT22;16382;59.942;30.472;2022-10-16T02:57:29;10.80;99.90
29403;DHT22;16382;59.942;30.472;2022-10-16T02:59:58;10.80;99.90
29403;DHT22;16382;59.942;30.472;2022-10-16T03:02:26;10.70;99.90
29403;DHT22;16382;59.942;30.472;2022-10-16T03:04:53;10.60;99.90
29403;DHT22;16382;59.942;30.472;2022-10-16T03:07:20;10.60;99.90
29403;DHT22;16382;59.942;30.472;2022-10-16T03:09:48;10.60;99.90
29403;DHT22;16382;59.942;30.472;2022-10-16T03:12:15;10.60;99.90
29403;DHT22;16382;59.942;30.472;2022-10-16T03:14:42;10.50;99.90
29403;DHT22;16382;59.942;30.472;2022-10-16T03:17:10;10.50;99.90
29403;DHT22;16382;59.942;30.472;2022-10-16T03:19:38;10.50;99.90
29403;DHT22;16382;59.942;30.472;2022-10-16T03:22:06;10.40;99.90
29403;DHT22;16382;59.942;30.472;2022-10-16T03:24:33;10.40;99.90
29403;DHT22;16382;59.942;30.472;2022-10-16T03:27:00;10.30;99.90
29403;DHT22;16382;59.942;30.472;2022-10-16T03:29:27;10.30;99.90
29403;DHT22;16382;59.942;30.472;2022-10-16T03:31:55;10.30;99.90
29403;DHT22;16382;59.942;30.472;2022-10-16T03:34:23;10.30;99.90
29403;DHT22;16382;59.942;30.472;2022-10-16T03:36:51;10.30;99.90
29403;DHT22;16382;59.942;30.472;2022-10-16T03:39:18;10.30;99.90
29403;DHT22;16382;59.942;30.472;2022-10-16T03:41:45;10.30;99.90
29403;DHT22;16382;59.942;30.472;2022-10-16T03:44:13;10.30;99.90
29403;DHT22;16382;59.942;30.472;2022-10-16T03:46:40;10.30;99.90
29403;DHT22;16382;59.942;30.472;2022-10-16T03:49:08;10.20;99.90
29403;DHT22;16382;59.942;30.472;2022-10-16T03:51:36;10.20;99.90
29403;DHT22;16382;59.942;30.472;2022-10-16T03:54:03;10.20;99.90
29403;DHT22;16382;59.942;30.472;2022-10-16T03:56:30;10.20;99.90
29403;DHT22;16382;59.942;30.472;2022-10-16T03:58:58;10.20;99.90
29403;DHT22;16382;59.942;30.472;2022-10-16T04:01:25;10.20;99.90
29403;DHT22;16382;59.942;30.472;2022-10-16T04:03:52;10.10;99.90
29403;DHT22;16382;59.942;30.472;2022-10-16T04:06:19;10.10;99.90
29403;DHT22;16382;59.942;30.472;2022-10-16T04:08:48;10.10;99.90
29403;DHT22;16382;59.942;30.472;2022-10-16T04:11:15;10.10;99.90
29403;DHT22;16382;59.942;30.472;2022-10-16T04:13:42;10.10;99.90
29403;DHT22;16382;59.942;30.472;2022-10-16T04:16:09;10.10;99.90
29403;DHT22;16382;59.942;30.472;2022-10-16T04:18:36;10.10;99.90
29403;DHT22;16382;59.942;30.472;2022-10-16T04:21:05;10.10;99.90
29403;DHT22;16382;59.942;30.472;2022-10-16T04:23:33;10.00;99.90
29403;DHT22;16382;59.942;30.472;2022-10-16T04:26:02;9.90;99.90
29403;DHT22;16382;59.942;30.472;2022-10-16T04:28:29;9.90;99.90
29403;DHT22;16382;59.942;30.472;2022-10-16T04:30:56;9.90;99.90
29403;DHT22;16382;59.942;30.472;2022-10-16T04:33:24;9.80;99.90
29403;DHT22;16382;59.942;30.472;2022-10-16T04:35:56;9.80;99.90
29403;DHT22;16382;59.942;30.472;2022-10-16T04:38:23;9.70;99.90
29403;DHT22;16382;59.942;30.472;2022-10-16T04:40:51;9.70;99.90
29403;DHT22;16382;59.942;30.472;2022-10-16T04:43:20;9.70;99.90
29403;DHT22;16382;59.942;30.472;2022-10-16T04:45:47;9.70;99.90
29403;DHT22;16382;59.942;30.472;2022-10-16T04:48:16;9.70;99.90
29403;DHT22;16382;59.942;30.472;2022-10-16T04:50:43;9.70;99.90
29403;DHT22;16382;59.942;30.472;2022-10-16T04:53:10;9.70;99.90
29403;DHT22;16382;59.942;30.472;2022-10-16T04:55:38;9.60;99.90
29403;DHT22;16382;59.942;30.472;2022-10-16T04:58:05;9.60;99.90
29403;DHT22;16382;59.942;30.472;2022-10-16T05:00:35;9.60;99.90
29403;DHT22;16382;59.942;30.472;2022-10-16T05:03:04;9.60;99.90
29403;DHT22;16382;59.942;30.472;2022-10-16T05:05:34;9.60;99.90
29403;DHT22;16382;59.942;30.472;2022-10-16T05:08:02;9.70;99.90
29403;DHT22;16382;59.942;30.472;2022-10-16T05:10:29;9.80;99.90
29403;DHT22;16382;59.942;30.472;2022-10-16T05:12:57;9.80;99.90
29403;DHT22;16382;59.942;30.472;2022-10-16T05:15:24;9.90;99.90
29403;DHT22;16382;59.942;30.472;2022-10-16T05:17:56;10.00;99.90
29403;DHT22;16382;59.942;30.472;2022-10-16T05:20:23;9.90;99.90
29403;DHT22;16382;59.942;30.472;2022-10-16T05:22:50;9.90;99.90
29403;DHT22;16382;59.942;30.472;2022-10-16T05:25:18;9.80;99.90
29403;DHT22;16382;59.942;30.472;2022-10-16T05:27:47;9.80;99.90
29403;DHT22;16382;59.942;30.472;2022-10-16T05:30:15;9.80;99.90
29403;DHT22;16382;59.942;30.472;2022-10-16T05:32:46;9.80;99.90
29403;DHT22;16382;59.942;30.472;2022-10-16T05:35:14;9.80;99.90
29403;DHT22;16382;59.942;30.472;2022-10-16T05:37:42;9.80;99.90
29403;DHT22;16382;59.942;30.472;2022-10-16T05:40:09;9.90;99.90
29403;DHT22;16382;59.942;30.472;2022-10-16T05:42:38;9.90;99.90
29403;DHT22;16382;59.942;30.472;2022-10-16T05:45:09;10.00;99.90
29403;DHT22;16382;59.942;30.472;2022-10-16T05:47:37;10.10;99.90
29403;DHT22;16382;59.942;30.472;2022-10-16T05:50:05;10.10;99.90
29403;DHT22;16382;59.942;30.472;2022-10-16T05:52:34;10.10;99.90
29403;DHT22;16382;59.942;30.472;2022-10-16T05:55:01;10.00;99.90
29403;DHT22;16382;59.942;30.472;2022-10-16T05:57:29;10.00;99.90
29403;DHT22;16382;59.942;30.472;2022-10-16T05:59:59;10.00;99.90
29403;DHT22;16382;59.942;30.472;2022-10-16T06:02:29;10.10;99.90
29403;DHT22;16382;59.942;30.472;2022-10-16T06:04:56;10.10;99.90
29403;DHT22;16382;59.942;30.472;2022-10-16T06:07:25;10.10;99.90
29403;DHT22;16382;59.942;30.472;2022-10-16T06:09:55;10.10;99.90
29403;DHT22;16382;59.942;30.472;2022-10-16T06:12:23;10.10;99.90
29403;DHT22;16382;59.942;30.472;2022-10-16T06:14:50;10.20;99.90
29403;DHT22;16382;59.942;30.472;2022-10-16T06:17:18;10.20;99.90
29403;DHT22;16382;59.942;30.472;2022-10-16T06:19:50;10.30;99.90
29403;DHT22;16382;59.942;30.472;2022-10-16T06:22:25;10.40;99.90
29403;DHT22;16382;59.942;30.472;2022-10-16T06:24:54;10.50;99.90
29403;DHT22;16382;59.942;30.472;2022-10-16T06:27:22;10.50;99.90
29403;DHT22;16382;59.942;30.472;2022-10-16T06:29:50;10.50;99.90
29403;DHT22;16382;59.942;30.472;2022-10-16T06:32:21;10.60;99.90
29403;DHT22;16382;59.942;30.472;2022-10-16T06:34:48;10.70;99.90
29403;DHT22;16382;59.942;30.472;2022-10-16T06:37:16;10.70;99.90
29403;DHT22;16382;59.942;30.472;2022-10-16T06:39:43;10.70;99.90
29403;DHT22;16382;59.942;30.472;2022-10-16T06:42:21;10.70;99.90
29403;DHT22;16382;59.942;30.472;2022-10-16T06:44:59;10.80;99.90
29403;DHT22;16382;59.942;30.472;2022-10-16T06:47:28;10.90;99.90
29403;DHT22;16382;59.942;30.472;2022-10-16T06:50:20;10.90;99.90
29403;DHT22;16382;59.942;30.472;2022-10-16T06:52:49;10.90;99.90
29403;DHT22;16382;59.942;30.472;2022-10-16T06:55:17;10.90;99.90
29403;DHT22;16382;59.942;30.472;2022-10-16T06:57:46;10.90;99.90
29403;DHT22;16382;59.942;30.472;2022-10-16T07:00:14;11.10;99.90
29403;DHT22;16382;59.942;30.472;2022-10-16T07:02:43;11.30;99.90
29403;DHT22;16382;59.942;30.472;2022-10-16T07:05:15;11.40;99.90
29403;DHT22;16382;59.942;30.472;2022-10-16T07:07:43;11.50;99.90
29403;DHT22;16382;59.942;30.472;2022-10-16T07:10:10;11.60;99.90
29403;DHT22;16382;59.942;30.472;2022-10-16T07:12:38;11.80;99.90
29403;DHT22;16382;59.942;30.472;2022-10-16T07:15:08;11.90;99.90
29403;DHT22;16382;59.942;30.472;2022-10-16T07:17:35;11.90;99.90
29403;DHT22;16382;59.942;30.472;2022-10-16T07:20:03;12.00;99.90
29403;DHT22;16382;59.942;30.472;2022-10-16T07:22:30;11.90;99.90
29403;DHT22;16382;59.942;30.472;2022-10-16T07:24:57;11.80;99.90
29403;DHT22;16382;59.942;30.472;2022-10-16T07:27:24;11.80;99.90
29403;DHT22;16382;59.942;30.472;2022-10-16T07:29:52;11.90;99.90
29403;DHT22;16382;59.942;30.472;2022-10-16T07:32:21;11.80;99.90
29403;DHT22;16382;59.942;30.472;2022-10-16T07:34:48;11.80;99.90
29403;DHT22;16382;59.942;30.472;2022-10-16T07:37:16;11.90;99.90
29403;DHT22;16382;59.942;30.472;2022-10-16T07:39:47;11.80;99.90
29403;DHT22;16382;59.942;30.472;2022-10-16T07:42:15;11.70;99.90
29403;DHT22;16382;59.942;30.472;2022-10-16T07:44:42;11.70;99.90
29403;DHT22;16382;59.942;30.472;2022-10-16T07:47:09;11.80;99.90
29403;DHT22;16382;59.942;30.472;2022-10-16T07:49:38;11.70;99.90
29403;DHT22;16382;59.942;30.472;2022-10-16T07:52:05;12.00;99.90
29403;DHT22;16382;59.942;30.472;2022-10-16T07:54:33;12.70;99.90
29403;DHT22;16382;59.942;30.472;2022-10-16T07:57:00;13.20;99.90
29403;DHT22;16382;59.942;30.472;2022-10-16T07:59:27;13.00;99.90
29403;DHT22;16382;59.942;30.472;2022-10-16T08:01:54;12.70;99.90
29403;DHT22;16382;59.942;30.472;2022-10-16T08:04:23;12.30;99.90
29403;DHT22;16382;59.942;30.472;2022-10-16T08:06:55;12.10;99.90
29403;DHT22;16382;59.942;30.472;2022-10-16T08:09:22;12.00;99.90
29403;DHT22;16382;59.942;30.472;2022-10-16T08:11:49;11.90;99.90
29403;DHT22;16382;59.942;30.472;2022-10-16T08:14:18;11.70;99.90
29403;DHT22;16382;59.942;30.472;2022-10-16T08:16:45;11.60;99.90
29403;DHT22;16382;59.942;30.472;2022-10-16T08:19:12;11.50;99.90
29403;DHT22;16382;59.942;30.472;2022-10-16T08:21:41;11.40;99.90
29403;DHT22;16382;59.942;30.472;2022-10-16T08:24:10;11.40;99.90
29403;DHT22;16382;59.942;30.472;2022-10-16T08:26:37;11.40;99.90
29403;DHT22;16382;59.942;30.472;2022-10-16T08:29:04;11.30;99.90
29403;DHT22;16382;59.942;30.472;2022-10-16T08:31:33;11.60;99.90
29403;DHT22;16382;59.942;30.472;2022-10-16T08:34:00;12.10;99.90
29403;DHT22;16382;59.942;30.472;2022-10-16T08:36:28;12.40;99.90
29403;DHT22;16382;59.942;30.472;2022-10-16T08:38:59;12.50;99.90
29403;DHT22;16382;59.942;30.472;2022-10-16T08:42:03;12.40;99.90
29403;DHT22;16382;59.942;30.472;2022-10-16T08:47:49;12.20;99.90
29403;DHT22;16382;59.942;30.472;2022-10-16T08:50:23;12.10;99.90
29403;DHT22;16382;59.942;30.472;2022-10-16T08:52:51;12.00;99.90
29403;DHT22;16382;59.942;30.472;2022-10-16T08:55:34;11.90;99.90
29403;DHT22;16382;59.942;30.472;2022-10-16T08:58:12;11.80;99.90
29403;DHT22;16382;59.942;30.472;2022-10-16T09:00:40;11.80;99.90
29403;DHT22;16382;59.942;30.472;2022-10-16T09:03:16;11.80;99.90
29403;DHT22;16382;59.942;30.472;2022-10-16T09:06:10;11.70;99.90
29403;DHT22;16382;59.942;30.472;2022-10-16T09:08:47;11.60;99.90
29403;DHT22;16382;59.942;30.472;2022-10-16T09:11:29;11.60;99.90
29403;DHT22;16382;59.942;30.472;2022-10-16T09:14:11;11.60;99.90
29403;DHT22;16382;59.942;30.472;2022-10-16T09:16:47;11.60;99.90
29403;DHT22;16382;59.942;30.472;2022-10-16T09:19:20;11.70;99.90
29403;DHT22;16382;59.942;30.472;2022-10-16T09:21:50;11.80;99.90
29403;DHT22;16382;59.942;30.472;2022-10-16T09:24:20;11.80;99.90
29403;DHT22;16382;59.942;30.472;2022-10-16T09:26:50;11.80;99.90
29403;DHT22;16382;59.942;30.472;2022-10-16T09:29:20;11.80;99.90
29403;DHT22;16382;59.942;30.472;2022-10-16T09:31:51;11.80;99.90
29403;DHT22;16382;59.942;30.472;2022-10-16T09:34:24;11.70;99.90
29403;DHT22;16382;59.942;30.472;2022-10-16T09:36:54;11.80;99.90
29403;DHT22;16382;59.942;30.472;2022-10-16T09:39:23;11.80;99.90
29403;DHT22;16382;59.942;30.472;2022-10-16T09:41:51;11.90;99.90
29403;DHT22;16382;59.942;30.472;2022-10-16T09:44:24;12.00;99.90
29403;DHT22;16382;59.942;30.472;2022-10-16T09:47:02;12.00;99.90
29403;DHT22;16382;59.942;30.472;2022-10-16T09:49:29;12.10;99.90
29403;DHT22;16382;59.942;30.472;2022-10-16T09:52:04;12.10;99.90
29403;DHT22;16382;59.942;30.472;2022-10-16T09:54:31;12.00;99.90
29403;DHT22;16382;59.942;30.472;2022-10-16T09:57:06;12.00;99.90
29403;DHT22;16382;59.942;30.472;2022-10-16T09:59:46;12.00;99.90
29403;DHT22;16382;59.942;30.472;2022-10-16T10:02:14;12.00;99.90
29403;DHT22;16382;59.942;30.472;2022-10-16T10:04:47;12.00;99.90
29403;DHT22;16382;59.942;30.472;2022-10-16T10:07:18;12.00;99.90
29403;DHT22;16382;59.942;30.472;2022-10-16T10:09:47;12.00;99.90
29403;DHT22;16382;59.942;30.472;2022-10-16T10:12:18;12.00;99.90
29403;DHT22;16382;59.942;30.472;2022-10-16T10:14:49;12.10;99.90
29403;DHT22;16382;59.942;30.472;2022-10-16T10:17:20;12.10;99.90
29403;DHT22;16382;59.942;30.472;2022-10-16T10:19:52;12.10;99.90
29403;DHT22;16382;59.942;30.472;2022-10-16T10:22:25;12.10;99.90
29403;DHT22;16382;59.942;30.472;2022-10-16T10:27:48;12.00;99.90
29403;DHT22;16382;59.942;30.472;2022-10-16T10:30:24;11.90;99.90
29403;DHT22;16382;59.942;30.472;2022-10-16T10:33:06;11.90;99.90
29403;DHT22;16382;59.942;30.472;2022-10-16T10:35:42;12.10;99.90
29403;DHT22;16382;59.942;30.472;2022-10-16T10:38:24;12.10;99.90
29403;DHT22;16382;59.942;30.472;2022-10-16T10:41:12;12.20;99.90
29403;DHT22;16382;59.942;30.472;2022-10-16T10:44:00;12.20;99.90
29403;DHT22;16382;59.942;30.472;2022-10-16T10:46:34;12.20;99.90
29403;DHT22;16382;59.942;30.472;2022-10-16T10:49:27;12.20;99.90
29403;DHT22;16382;59.942;30.472;2022-10-16T10:52:10;12.10;99.90
29403;DHT22;16382;59.942;30.472;2022-10-16T10:54:51;12.20;99.90
29403;DHT22;16382;59.942;30.472;2022-10-16T10:57:25;12.10;99.90
29403;DHT22;16382;59.942;30.472;2022-10-16T11:00:06;12.00;99.90
29403;DHT22;16382;59.942;30.472;2022-10-16T11:02:41;12.00;99.90
29403;DHT22;16382;59.942;30.472;2022-10-16T11:05:36;11.90;99.90
29403;DHT22;16382;59.942;30.472;2022-10-16T11:08:11;11.90;99.90
29403;DHT22;16382;59.942;30.472;2022-10-16T11:10:47;11.90;99.90
29403;DHT22;16382;59.942;30.472;2022-10-16T11:13:26;11.90;99.90
29403;DHT22;16382;59.942;30.472;2022-10-16T11:15:58;11.80;99.90
29403;DHT22;16382;59.942;30.472;2022-10-16T11:18:38;11.80;99.90
29403;DHT22;16382;59.942;30.472;2022-10-16T11:21:10;11.70;99.90
29403;DHT22;16382;59.942;30.472;2022-10-16T11:23:44;11.70;99.90
29403;DHT22;16382;59.942;30.472;2022-10-16T11:26:16;11.60;99.90
29403;DHT22;16382;59.942;30.472;2022-10-16T11:28:48;11.50;99.90
29403;DHT22;16382;59.942;30.472;2022-10-16T11:31:22;11.40;99.90
29403;DHT22;16382;59.942;30.472;2022-10-16T11:34:04;11.30;99.90
29403;DHT22;16382;59.942;30.472;2022-10-16T11:36:46;11.30;99.90
29403;DHT22;16382;59.942;30.472;2022-10-16T11:39:19;11.30;99.90
29403;DHT22;16382;59.942;30.472;2022-10-16T11:41:50;11.30;99.90
29403;DHT22;16382;59.942;30.472;2022-10-16T11:44:35;11.20;99.90
29403;DHT22;16382;59.942;30.472;2022-10-16T11:47:14;11.20;99.90
29403;DHT22;16382;59.942;30.472;2022-10-16T11:49:44;11.20;99.90
29403;DHT22;16382;59.942;30.472;2022-10-16T11:52:19;11.10;99.90
29403;DHT22;16382;59.942;30.472;2022-10-16T11:54:52;11.10;99.90
29403;DHT22;16382;59.942;30.472;2022-10-16T11:57:24;11.10;99.90
29403;DHT22;16382;59.942;30.472;2022-10-16T12:00:00;11.10;99.90
29403;DHT22;16382;59.942;30.472;2022-10-16T12:02:50;11.10;99.90
29403;DHT22;16382;59.942;30.472;2022-10-16T12:05:25;11.10;99.90
29403;DHT22;16382;59.942;30.472;2022-10-16T12:08:09;11.00;99.90
29403;DHT22;16382;59.942;30.472;2022-10-16T12:10:38;11.00;99.90
29403;DHT22;16382;59.942;30.472;2022-10-16T12:13:32;11.00;99.90
29403;DHT22;16382;59.942;30.472;2022-10-16T12:16:06;10.90;99.90
29403;DHT22;16382;59.942;30.472;2022-10-16T12:18:34;10.90;99.90
29403;DHT22;16382;59.942;30.472;2022-10-16T12:21:03;10.90;99.90
29403;DHT22;16382;59.942;30.472;2022-10-16T12:23:37;10.90;99.90
29403;DHT22;16382;59.942;30.472;2022-10-16T12:26:05;10.90;99.90
29403;DHT22;16382;59.942;30.472;2022-10-16T12:28:34;11.00;99.90
29403;DHT22;16382;59.942;30.472;2022-10-16T12:31:07;11.00;99.90
29403;DHT22;16382;59.942;30.472;2022-10-16T12:33:37;10.90;99.90
29403;DHT22;16382;59.942;30.472;2022-10-16T12:36:13;10.90;99.90
29403;DHT22;16382;59.942;30.472;2022-10-16T12:38:47;10.90;99.90
29403;DHT22;16382;59.942;30.472;2022-10-16T12:41:25;10.90;99.90
29403;DHT22;16382;59.942;30.472;2022-10-16T12:43:53;10.90;99.90
29403;DHT22;16382;59.942;30.472;2022-10-16T12:51:54;11.00;99.90
29403;DHT22;16382;59.942;30.472;2022-10-16T12:54:25;11.00;99.90
29403;DHT22;16382;59.942;30.472;2022-10-16T12:57:09;11.00;99.90
29403;DHT22;16382;59.942;30.472;2022-10-16T12:59:44;10.90;99.90
29403;DHT22;16382;59.942;30.472;2022-10-16T13:02:38;11.00;99.90
29403;DHT22;16382;59.942;30.472;2022-10-16T13:05:19;10.90;99.90
29403;DHT22;16382;59.942;30.472;2022-10-16T13:07:57;10.90;99.90
29403;DHT22;16382;59.942;30.472;2022-10-16T13:10:34;10.90;99.90
29403;DHT22;16382;59.942;30.472;2022-10-16T13:13:26;10.80;99.90
29403;DHT22;16382;59.942;30.472;2022-10-16T13:16:12;10.80;99.90
29403;DHT22;16382;59.942;30.472;2022-10-16T13:18:50;10.80;99.90
29403;DHT22;16382;59.942;30.472;2022-10-16T13:21:32;10.80;99.90
29403;DHT22;16382;59.942;30.472;2022-10-16T13:24:12;10.80;99.90
29403;DHT22;16382;59.942;30.472;2022-10-16T13:26:46;10.80;99.90
29403;DHT22;16382;59.942;30.472;2022-10-16T13:29:16;10.80;99.90
29403;DHT22;16382;59.942;30.472;2022-10-16T13:31:47;10.80;99.90
29403;DHT22;16382;59.942;30.472;2022-10-16T13:34:17;10.80;99.90
29403;DHT22;16382;59.942;30.472;2022-10-16T13:36:46;10.80;99.90
29403;DHT22;16382;59.942;30.472;2022-10-16T13:39:21;10.80;99.90
29403;DHT22;16382;59.942;30.472;2022-10-16T13:42:00;10.80;99.90
29403;DHT22;16382;59.942;30.472;2022-10-16T13:44:38;10.80;99.90
29403;DHT22;16382;59.942;30.472;2022-10-16T13:47:16;10.90;99.90
29403;DHT22;16382;59.942;30.472;2022-10-16T13:49:44;10.80;99.90
29403;DHT22;16382;59.942;30.472;2022-10-16T13:52:21;10.90;99.90
29403;DHT22;16382;59.942;30.472;2022-10-16T13:54:49;10.90;99.90
29403;DHT22;16382;59.942;30.472;2022-10-16T13:57:22;10.90;99.90
29403;DHT22;16382;59.942;30.472;2022-10-16T13:59:59;10.90;99.90
29403;DHT22;16382;59.942;30.472;2022-10-16T14:02:29;10.90;99.90
29403;DHT22;16382;59.942;30.472;2022-10-16T14:04:58;10.90;99.90
29403;DHT22;16382;59.942;30.472;2022-10-16T14:07:27;11.00;99.90
29403;DHT22;16382;59.942;30.472;2022-10-16T14:10:00;11.00;99.90
29403;DHT22;16382;59.942;30.472;2022-10-16T14:12:28;11.00;99.90
29403;DHT22;16382;59.942;30.472;2022-10-16T14:14:57;10.90;99.90
29403;DHT22;16382;59.942;30.472;2022-10-16T14:17:26;10.90;99.90
29403;DHT22;16382;59.942;30.472;2022-10-16T14:19:56;10.90;99.90
29403;DHT22;16382;59.942;30.472;2022-10-16T14:22:30;10.90;99.90
29403;DHT22;16382;59.942;30.472;2022-10-16T14:25:00;10.90;99.90
29403;DHT22;16382;59.942;30.472;2022-10-16T14:27:36;10.90;99.90
29403;DHT22;16382;59.942;30.472;2022-10-16T14:30:17;10.80;99.90
29403;DHT22;16382;59.942;30.472;2022-10-16T14:32:54;10.90;99.90
29403;DHT22;16382;59.942;30.472;2022-10-16T14:35:29;10.90;99.90
29403;DHT22;16382;59.942;30.472;2022-10-16T14:38:00;10.90;99.90
29403;DHT22;16382;59.942;30.472;2022-10-16T14:40:31;10.90;99.90
29403;DHT22;16382;59.942;30.472;2022-10-16T14:43:00;10.90;99.90
29403;DHT22;16382;59.942;30.472;2022-10-16T14:45:30;11.00;99.90
29403;DHT22;16382;59.942;30.472;2022-10-16T14:48:00;10.90;99.90
29403;DHT22;16382;59.942;30.472;2022-10-16T14:50:29;10.90;99.90
29403;DHT22;16382;59.942;30.472;2022-10-16T14:52:56;10.90;99.90
29403;DHT22;16382;59.942;30.472;2022-10-16T14:55:25;10.90;99.90
29403;DHT22;16382;59.942;30.472;2022-10-16T14:57:54;10.90;99.90
29403;DHT22;16382;59.942;30.472;2022-10-16T15:00:25;10.90;99.90
29403;DHT22;16382;59.942;30.472;2022-10-16T15:02:52;10.90;99.90
29403;DHT22;16382;59.942;30.472;2022-10-16T15:05:21;10.80;99.90
29403;DHT22;16382;59.942;30.472;2022-10-16T15:07:50;10.80;99.90
29403;DHT22;16382;59.942;30.472;2022-10-16T15:10:20;10.80;99.90
29403;DHT22;16382;59.942;30.472;2022-10-16T15:12:49;10.80;99.90
29403;DHT22;16382;59.942;30.472;2022-10-16T15:15:37;10.80;99.90
29403;DHT22;16382;59.942;30.472;2022-10-16T15:18:06;10.80;99.90
29403;DHT22;16382;59.942;30.472;2022-10-16T15:20:34;10.80;99.90
29403;DHT22;16382;59.942;30.472;2022-10-16T15:23:05;10.80;99.90
29403;DHT22;16382;59.942;30.472;2022-10-16T15:25:36;10.80;99.90
29403;DHT22;16382;59.942;30.472;2022-10-16T15:28:06;10.80;99.90
29403;DHT22;16382;59.942;30.472;2022-10-16T15:30:37;10.80;99.90
29403;DHT22;16382;59.942;30.472;2022-10-16T15:33:11;10.80;99.90
29403;DHT22;16382;59.942;30.472;2022-10-16T15:35:39;10.80;99.90
29403;DHT22;16382;59.942;30.472;2022-10-16T15:38:09;10.90;99.90
29403;DHT22;16382;59.942;30.472;2022-10-16T15:40:38;10.90;99.90
29403;DHT22;16382;59.942;30.472;2022-10-16T15:43:06;10.90;99.90
29403;DHT22;16382;59.942;30.472;2022-10-16T15:45:33;10.90;99.90
29403;DHT22;16382;59.942;30.472;2022-10-16T15:48:02;10.90;99.90
29403;DHT22;16382;59.942;30.472;2022-10-16T15:50:30;10.90;99.90
29403;DHT22;16382;59.942;30.472;2022-10-16T15:52:58;11.00;99.90
29403;DHT22;16382;59.942;30.472;2022-10-16T15:55:26;11.00;99.90